Susquehanna — WDD9976 — position and weather

sailwx.info

Track history (hours):
 
Tides and Currents Weather Stations Pressure Air Temp Water Temp Dewpoint Dewpoint Depression Visibility Wind Speed Wind Dir Waves Ship Positions

Susquehanna

Owner: Vane Line Bunkering, Inc., Philadelphia, PA. More information available from US FCC via Universal Licensing System and Coast Guard Vessel Documentation Center.

Last reported at 2017-Nov-19 05:10 UTC. Time now 2017-Nov-21 08:16 UTC.
Position N 42°50' W 070°18'.

Length 28 m; draft 4.2 m.

Type: Tug. MMSI: 367318750.

Date/timePositionNaut miles runAvg speedWind from/ knotsBaromVisibWave heightAir tempDewpointWater temp
2017-Nov-19 05:10N 42°50' W 070°18'1 6.5
2017-Nov-19 05:00N 42°49' W 070°18'3 6.5
2017-Nov-19 04:30N 42°46' W 070°20'3 6.5
2017-Nov-19 04:00N 42°43' W 070°21'4 7.5
2017-Nov-19 03:30N 42°40' W 070°23'4 7.6
2017-Nov-19 03:00N 42°36' W 070°24'4 7.4
2017-Nov-19 02:30N 42°33' W 070°26'4 7.5
2017-Nov-19 02:00N 42°29' W 070°27'4 7.4
2017-Nov-19 01:31N 42°26' W 070°29'4 7.6
2017-Nov-19 01:00N 42°22' W 070°30'4 7.6
2017-Nov-19 00:30N 42°18' W 070°31'2 4.3
2017-Nov-19 00:00N 42°16' W 070°31'3 6.4
2017-Nov-18 23:30N 42°13' W 070°31'4 8.3
2017-Nov-18 23:00N 42°09' W 070°31'  
2017-Nov-15 03:26N 39°00' W 075°09'5 5.6
2017-Nov-15 02:32N 39°05' W 075°11'0 9.2
2017-Nov-15 02:31N 39°05' W 075°11'4 8.9
2017-Nov-15 02:00N 39°09' W 075°15'4 8.2
2017-Nov-15 01:31N 39°13' W 075°17'4 7.6
2017-Nov-15 01:01N 39°16' W 075°20'3 6.7
2017-Nov-15 00:31N 39°18' W 075°23'3 6.3
2017-Nov-15 00:01N 39°21' W 075°26'3 6.0
2017-Nov-14 23:31N 39°23' W 075°28'3 6.2
2017-Nov-14 23:00N 39°25' W 075°31'3 6.4
2017-Nov-14 22:31N 39°28' W 075°34'3 6.8
2017-Nov-14 22:00N 39°31' W 075°33'3 5.6
2017-Nov-14 21:31N 39°34' W 075°34'4 8.7
2017-Nov-14 21:00N 39°33' W 075°40'5 9.1
2017-Nov-14 20:31N 39°32' W 075°45'4 8.1
2017-Nov-14 20:00N 39°32' W 075°51'4 8.1
2017-Nov-14 19:31N 39°30' W 075°55'4 7.9
2017-Nov-14 19:01N 39°27' W 075°59'4 7.3
2017-Nov-14 18:31N 39°25' W 076°02'0 0.7
2017-Nov-14 18:00N 39°24' W 076°03'0 0.0
2017-Nov-14 17:30N 39°24' W 076°03'1 1.6
2017-Nov-14 17:01N 39°24' W 076°03'2 4.0
2017-Nov-14 16:30N 39°23' W 076°06'2 4.5
2017-Nov-14 16:01N 39°22' W 076°08'3 5.6
2017-Nov-14 15:31N 39°20' W 076°11'3 6.4
2017-Nov-14 14:59N 39°18' W 076°14'3 7.0
2017-Nov-14 14:30N 39°14' W 076°14'4 7.3
2017-Nov-14 14:00N 39°11' W 076°17'4 6.6
2017-Nov-14 13:26N 39°09' W 076°21'4 8.0
2017-Nov-14 12:59N 39°10' W 076°25'4 8.2
2017-Nov-14 12:30N 39°12' W 076°30'4 8.1
2017-Nov-14 12:00N 39°15' W 076°34'1 1.4
2017-Nov-14 11:29N 39°15' W 076°34'0 0.0
2017-Nov-14 10:59N 39°15' W 076°34'0 0.0
2017-Nov-14 10:30N 39°15' W 076°34'0 0.0
2017-Nov-14 10:00N 39°15' W 076°34'0 0.0
2017-Nov-14 09:30N 39°15' W 076°34'0 0.0
2017-Nov-14 08:58N 39°15' W 076°34'0 0.0
2017-Nov-14 08:28N 39°15' W 076°34'0 0.0
2017-Nov-14 07:58N 39°15' W 076°34'0 0.0
2017-Nov-14 07:29N 39°15' W 076°34'0 0.0
2017-Nov-14 06:59N 39°15' W 076°34'0 0.0
2017-Nov-14 06:29N 39°15' W 076°34'0 0.0
2017-Nov-14 06:00N 39°15' W 076°34'0 0.0
2017-Nov-14 05:30N 39°15' W 076°34'0 0.0
2017-Nov-14 04:57N 39°15' W 076°34'0 0.0
2017-Nov-14 04:28N 39°15' W 076°34'0 0.0
2017-Nov-14 03:58N 39°15' W 076°34'0 0.0
2017-Nov-14 03:28N 39°15' W 076°34'0 0.0
2017-Nov-14 02:59N 39°15' W 076°34'0 0.0
2017-Nov-14 02:29N 39°15' W 076°34'0 0.0
2017-Nov-14 01:59N 39°15' W 076°34'0 0.0
2017-Nov-14 01:30N 39°15' W 076°34'0 0.0
2017-Nov-14 01:00N 39°15' W 076°34'0 0.0
2017-Nov-14 00:30N 39°15' W 076°34'0 0.0
2017-Nov-13 23:58N 39°15' W 076°34'0 0.0
2017-Nov-13 23:28N 39°15' W 076°34'0 0.0
2017-Nov-13 22:59N 39°15' W 076°34'0 0.0
2017-Nov-13 22:29N 39°15' W 076°34'0 0.0
2017-Nov-13 21:59N 39°15' W 076°34'0 0.0
2017-Nov-13 02:00N 39°15' W 076°34'0 0.0
2017-Nov-13 01:28N 39°15' W 076°34'0 0.0
2017-Nov-13 00:58N 39°15' W 076°34'0 0.0
2017-Nov-13 00:28N 39°15' W 076°34'0 0.0
2017-Nov-12 23:59N 39°15' W 076°34'0 0.0
2017-Nov-12 23:29N 39°15' W 076°34'0 0.0
2017-Nov-12 22:59N 39°15' W 076°34'0 0.0
2017-Nov-12 22:30N 39°15' W 076°34'0 0.0
2017-Nov-12 22:00N 39°15' W 076°34'0 0.0
2017-Nov-12 21:30N 39°15' W 076°34'0 0.0
2017-Nov-12 20:58N 39°15' W 076°34'0 0.1
2017-Nov-12 20:28N 39°15' W 076°34'1 1.4
2017-Nov-12 20:00N 39°15' W 076°33'1 1.9
2017-Nov-12 19:28N 39°14' W 076°33'0 0.0
2017-Nov-12 18:58N 39°14' W 076°33'0 0.1
2017-Nov-12 18:29N 39°14' W 076°33'1 3.2
2017-Nov-12 18:01N 39°15' W 076°34'2 3.0
2017-Nov-12 17:30N 39°14' W 076°33'0 0.0
2017-Nov-12 17:00N 39°14' W 076°33'0 0.1
2017-Nov-12 16:28N 39°14' W 076°33'0 0.0
2017-Nov-12 15:58N 39°14' W 076°33'0 0.1
2017-Nov-12 15:28N 39°14' W 076°33'0 0.0
2017-Nov-12 14:59N 39°14' W 076°33'0 0.0
2017-Nov-12 14:29N 39°14' W 076°33'0 0.1
2017-Nov-12 13:59N 39°14' W 076°33'0 0.1
2017-Nov-12 13:30N 39°14' W 076°33'0 0.0
2017-Nov-12 13:00N 39°13' W 076°33'0 0.1
2017-Nov-12 12:30N 39°14' W 076°33'0 0.1
2017-Nov-12 11:58N 39°14' W 076°33'0 0.0
2017-Nov-12 11:28N 39°14' W 076°33'0 0.0
2017-Nov-12 10:58N 39°14' W 076°33'0 0.1
2017-Nov-12 10:29N 39°14' W 076°33'0 0.0
2017-Nov-12 09:59N 39°14' W 076°33'0 0.0
2017-Nov-12 09:29N 39°14' W 076°33'0 0.0
2017-Nov-12 09:00N 39°14' W 076°33'0 0.0
2017-Nov-12 08:30N 39°14' W 076°33'0 0.0
2017-Nov-12 08:00N 39°14' W 076°33'0 0.0
2017-Nov-12 07:28N 39°14' W 076°33'0 0.1
2017-Nov-12 06:58N 39°14' W 076°33'0 0.0
2017-Nov-12 06:28N 39°14' W 076°33'0 0.0
2017-Nov-12 05:59N 39°14' W 076°33'0 0.0
2017-Nov-12 05:29N 39°14' W 076°33'0 0.0
2017-Nov-12 04:59N 39°14' W 076°33'0 0.0
2017-Nov-12 04:30N 39°14' W 076°33'0 0.1
2017-Nov-12 04:00N 39°14' W 076°33'0 0.0
2017-Nov-12 03:30N 39°14' W 076°33'0 0.0
2017-Nov-12 02:58N 39°14' W 076°33'0 0.0
2017-Nov-12 02:28N 39°14' W 076°33'0 0.0
2017-Nov-12 01:58N 39°14' W 076°33'0 0.0
2017-Nov-12 01:29N 39°14' W 076°33'0 0.1
2017-Nov-12 00:59N 39°14' W 076°33'0 0.1
2017-Nov-12 00:29N 39°14' W 076°33'0 0.0
2017-Nov-12 00:00N 39°14' W 076°33'0 0.0
2017-Nov-11 23:30N 39°14' W 076°33'0 0.0
2017-Nov-11 22:57N 39°14' W 076°33'0 0.1
2017-Nov-11 22:28N 39°14' W 076°33'0 0.0
2017-Nov-11 21:58N 39°14' W 076°33'0 0.1
2017-Nov-11 21:28N 39°14' W 076°33'0 0.1
2017-Nov-11 20:59N 39°14' W 076°33'0 0.2
2017-Nov-11 20:29N 39°14' W 076°33'0 0.1
2017-Nov-11 19:59N 39°14' W 076°33'0 0.1
2017-Nov-11 19:30N 39°14' W 076°33'0 0.1
2017-Nov-11 19:00N 39°14' W 076°33'0 0.0
2017-Nov-11 18:30N 39°14' W 076°33'0 0.1
2017-Nov-11 17:58N 39°14' W 076°33'0 0.1
2017-Nov-11 17:28N 39°13' W 076°33'0 0.0
2017-Nov-11 16:59N 39°14' W 076°33'0 0.0
2017-Nov-11 16:29N 39°13' W 076°33'0 0.1
2017-Nov-11 15:59N 39°13' W 076°33'0 0.1
2017-Nov-11 15:30N 39°14' W 076°33'2 3.1
2017-Nov-11 15:00N 39°15' W 076°34'0 0.0
2017-Nov-11 14:30N 39°15' W 076°34'0 0.0
2017-Nov-11 13:58N 39°15' W 076°34'0 0.0
2017-Nov-11 13:28N 39°15' W 076°34'0 0.0
2017-Nov-11 12:55N 39°15' W 076°34'0 0.0
2017-Nov-11 12:30N 39°15' W 076°34'2 2.7
2017-Nov-11 11:56N 39°14' W 076°33'0 0.0
2017-Nov-11 11:26N 39°14' W 076°33'0 0.0
2017-Nov-11 11:00N 39°14' W 076°33'0 0.0
2017-Nov-11 10:30N 39°14' W 076°33'0 0.0
2017-Nov-11 10:00N 39°14' W 076°33'0 0.0
2017-Nov-11 09:28N 39°14' W 076°33'0 0.0
2017-Nov-11 08:55N 39°14' W 076°33'0 0.0
2017-Nov-11 08:28N 39°14' W 076°33'0 0.0
2017-Nov-11 07:59N 39°14' W 076°33'0 0.0
2017-Nov-11 07:29N 39°14' W 076°33'0 0.0
2017-Nov-11 06:59N 39°14' W 076°33'0 0.0
2017-Nov-11 06:30N 39°14' W 076°33'0 0.0
2017-Nov-11 06:00N 39°14' W 076°33'0 0.0
2017-Nov-11 05:30N 39°14' W 076°33'0 0.0
2017-Nov-11 05:00N 39°14' W 076°33'0 0.0
2017-Nov-11 04:28N 39°14' W 076°33'0 0.0
2017-Nov-11 03:58N 39°14' W 076°33'0 0.0
2017-Nov-11 03:29N 39°14' W 076°33'0 0.0
2017-Nov-11 02:59N 39°14' W 076°33'0 0.0
2017-Nov-11 02:29N 39°14' W 076°33'0 0.0
2017-Nov-11 02:00N 39°14' W 076°33'0 0.0
2017-Nov-11 01:30N 39°14' W 076°33'0 0.0
2017-Nov-11 01:00N 39°14' W 076°33'0 0.0
2017-Nov-11 00:31N 39°14' W 076°33'0 0.0
2017-Nov-10 23:58N 39°14' W 076°33'0 0.0
2017-Nov-10 23:28N 39°14' W 076°33'0 0.0
2017-Nov-10 22:59N 39°14' W 076°33'0 0.0
2017-Nov-10 22:29N 39°14' W 076°33'0 0.0
2017-Nov-10 21:59N 39°14' W 076°33'0 0.0
2017-Nov-10 21:27N 39°14' W 076°33'0 0.0
2017-Nov-10 21:00N 39°14' W 076°33'0 0.0
2017-Nov-10 20:30N 39°14' W 076°33'0 0.0
2017-Nov-10 20:00N 39°14' W 076°33'0 0.0
2017-Nov-10 19:28N 39°14' W 076°33'0 0.0
2017-Nov-10 18:58N 39°14' W 076°33'0 0.0
2017-Nov-10 18:29N 39°14' W 076°33'0 0.0
2017-Nov-10 17:59N 39°14' W 076°33'0 0.0
2017-Nov-10 17:29N 39°14' W 076°33'0 0.0
2017-Nov-10 17:00N 39°14' W 076°33'0 0.0
2017-Nov-10 16:30N 39°14' W 076°33'0 0.0
2017-Nov-10 16:00N 39°14' W 076°33'0 0.0
2017-Nov-10 15:30N 39°14' W 076°33'0 0.0
2017-Nov-10 14:58N 39°14' W 076°33'0 0.0
2017-Nov-10 14:28N 39°14' W 076°33'0 0.0
2017-Nov-10 13:58N 39°14' W 076°33'0 0.0
2017-Nov-10 13:29N 39°14' W 076°33'0 0.0
2017-Nov-10 12:59N 39°14' W 076°33'0 0.1
2017-Nov-10 12:27N 39°14' W 076°33'0 0.0
2017-Nov-10 12:00N 39°14' W 076°33'0 0.0
2017-Nov-10 11:31N 39°14' W 076°33'0 0.0
2017-Nov-10 11:00N 39°14' W 076°33'0 0.1
2017-Nov-10 10:30N 39°14' W 076°33'0 0.0
2017-Nov-10 10:00N 39°14' W 076°33'0 0.1
2017-Nov-10 09:31N 39°14' W 076°33'3 5.6
2017-Nov-10 09:00N 39°12' W 076°30'9 8.2
2017-Nov-10 07:51N 39°10' W 076°18'3 9.9
2017-Nov-10 07:30N 39°13' W 076°15'5 9.5
2017-Nov-10 07:01N 39°17' W 076°14'4 9.0
2017-Nov-10 06:31N 39°21' W 076°10'4 8.7
2017-Nov-10 06:00N 39°23' W 076°05'4 8.3
2017-Nov-10 05:31N 39°26' W 076°01'4 7.9
2017-Nov-10 05:01N 39°28' W 075°58'4 7.1
2017-Nov-10 04:31N 39°31' W 075°54'3 5.6
2017-Nov-10 04:01N 39°32' W 075°51'3 5.4
2017-Nov-10 03:31N 39°32' W 075°47'3 6.9
2017-Nov-10 03:01N 39°33' W 075°43'4 7.2
2017-Nov-10 02:31N 39°33' W 075°38'4 8.0
2017-Nov-10 02:00N 39°34' W 075°33'3 6.3
2017-Nov-10 01:30N 39°30' W 075°33'3 6.7
2017-Nov-10 01:01N 39°27' W 075°33'3 7.0
2017-Nov-10 00:31N 39°24' W 075°30'3 7.0
2017-Nov-10 00:01N 39°22' W 075°27'4 7.1
2017-Nov-09 23:31N 39°19' W 075°24'4 7.2
2017-Nov-09 23:01N 39°17' W 075°21'4 7.7
2017-Nov-09 22:31N 39°14' W 075°18'4 7.8
2017-Nov-09 22:00N 39°10' W 075°16'4 8.1
2017-Nov-09 21:30N 39°07' W 075°12'4 8.2
2017-Nov-09 21:01N 39°03' W 075°10'4 8.2
2017-Nov-09 20:30N 38°59' W 075°08'62 7.1
2017-Nov-09 11:45N 39°37' W 074°04'2 9.3
2017-Nov-09 11:30N 39°39' W 074°03'5 9.3
2017-Nov-09 11:00N 39°43' W 073°60'5 9.1
2017-Nov-09 10:30N 39°47' W 073°57'42 9.3
2017-Nov-09 05:56N 40°30' W 073°56'4 9.2
2017-Nov-09 05:30N 40°32' W 074°01'  
Track history (hours):
 
Tides and Currents Weather Stations Pressure Air Temp Water Temp Dewpoint Dewpoint Depression Visibility Wind Speed Wind Dir Waves Ship Positions

Susquehanna

Owner: Vane Line Bunkering, Inc., Philadelphia, PA. More information available from US FCC via Universal Licensing System and Coast Guard Vessel Documentation Center.

Last reported at 2017-Nov-19 05:10 UTC. Time now 2017-Nov-21 08:16 UTC.
Position N 42°50' W 070°18'.

Length 28 m; draft 4.2 m.

Type: Tug. MMSI: 367318750.

Date/timePositionNaut miles runAvg speedWind from/ knotsBaromVisibWave heightAir tempDewpointWater temp
2017-Nov-19 05:10N 42°50' W 070°18'1 6.5
2017-Nov-19 05:00N 42°49' W 070°18'3 6.5
2017-Nov-19 04:30N 42°46' W 070°20'3 6.5
2017-Nov-19 04:00N 42°43' W 070°21'4 7.5
2017-Nov-19 03:30N 42°40' W 070°23'4 7.6
2017-Nov-19 03:00N 42°36' W 070°24'4 7.4
2017-Nov-19 02:30N 42°33' W 070°26'4 7.5
2017-Nov-19 02:00N 42°29' W 070°27'4 7.4
2017-Nov-19 01:31N 42°26' W 070°29'4 7.6
2017-Nov-19 01:00N 42°22' W 070°30'4 7.6
2017-Nov-19 00:30N 42°18' W 070°31'2 4.3
2017-Nov-19 00:00N 42°16' W 070°31'3 6.4
2017-Nov-18 23:30N 42°13' W 070°31'4 8.3
2017-Nov-18 23:00N 42°09' W 070°31'  
2017-Nov-15 03:26N 39°00' W 075°09'5 5.6
2017-Nov-15 02:32N 39°05' W 075°11'0 9.2
2017-Nov-15 02:31N 39°05' W 075°11'4 8.9
2017-Nov-15 02:00N 39°09' W 075°15'4 8.2
2017-Nov-15 01:31N 39°13' W 075°17'4 7.6
2017-Nov-15 01:01N 39°16' W 075°20'3 6.7
2017-Nov-15 00:31N 39°18' W 075°23'3 6.3
2017-Nov-15 00:01N 39°21' W 075°26'3 6.0
2017-Nov-14 23:31N 39°23' W 075°28'3 6.2
2017-Nov-14 23:00N 39°25' W 075°31'3 6.4
2017-Nov-14 22:31N 39°28' W 075°34'3 6.8
2017-Nov-14 22:00N 39°31' W 075°33'3 5.6
2017-Nov-14 21:31N 39°34' W 075°34'4 8.7
2017-Nov-14 21:00N 39°33' W 075°40'5 9.1
2017-Nov-14 20:31N 39°32' W 075°45'4 8.1
2017-Nov-14 20:00N 39°32' W 075°51'4 8.1
2017-Nov-14 19:31N 39°30' W 075°55'4 7.9
2017-Nov-14 19:01N 39°27' W 075°59'4 7.3
2017-Nov-14 18:31N 39°25' W 076°02'0 0.7
2017-Nov-14 18:00N 39°24' W 076°03'0 0.0
2017-Nov-14 17:30N 39°24' W 076°03'1 1.6
2017-Nov-14 17:01N 39°24' W 076°03'2 4.0
2017-Nov-14 16:30N 39°23' W 076°06'2 4.5
2017-Nov-14 16:01N 39°22' W 076°08'3 5.6
2017-Nov-14 15:31N 39°20' W 076°11'3 6.4
2017-Nov-14 14:59N 39°18' W 076°14'3 7.0
2017-Nov-14 14:30N 39°14' W 076°14'4 7.3
2017-Nov-14 14:00N 39°11' W 076°17'4 6.6
2017-Nov-14 13:26N 39°09' W 076°21'4 8.0
2017-Nov-14 12:59N 39°10' W 076°25'4 8.2
2017-Nov-14 12:30N 39°12' W 076°30'4 8.1
2017-Nov-14 12:00N 39°15' W 076°34'1 1.4
2017-Nov-14 11:29N 39°15' W 076°34'0 0.0
2017-Nov-14 10:59N 39°15' W 076°34'0 0.0
2017-Nov-14 10:30N 39°15' W 076°34'0 0.0
2017-Nov-14 10:00N 39°15' W 076°34'0 0.0
2017-Nov-14 09:30N 39°15' W 076°34'0 0.0
2017-Nov-14 08:58N 39°15' W 076°34'0 0.0
2017-Nov-14 08:28N 39°15' W 076°34'0 0.0
2017-Nov-14 07:58N 39°15' W 076°34'0 0.0
2017-Nov-14 07:29N 39°15' W 076°34'0 0.0
2017-Nov-14 06:59N 39°15' W 076°34'0 0.0
2017-Nov-14 06:29N 39°15' W 076°34'0 0.0
2017-Nov-14 06:00N 39°15' W 076°34'0 0.0
2017-Nov-14 05:30N 39°15' W 076°34'0 0.0
2017-Nov-14 04:57N 39°15' W 076°34'0 0.0
2017-Nov-14 04:28N 39°15' W 076°34'0 0.0
2017-Nov-14 03:58N 39°15' W 076°34'0 0.0
2017-Nov-14 03:28N 39°15' W 076°34'0 0.0
2017-Nov-14 02:59N 39°15' W 076°34'0 0.0
2017-Nov-14 02:29N 39°15' W 076°34'0 0.0
2017-Nov-14 01:59N 39°15' W 076°34'0 0.0
2017-Nov-14 01:30N 39°15' W 076°34'0 0.0
2017-Nov-14 01:00N 39°15' W 076°34'0 0.0
2017-Nov-14 00:30N 39°15' W 076°34'0 0.0
2017-Nov-13 23:58N 39°15' W 076°34'0 0.0
2017-Nov-13 23:28N 39°15' W 076°34'0 0.0
2017-Nov-13 22:59N 39°15' W 076°34'0 0.0
2017-Nov-13 22:29N 39°15' W 076°34'0 0.0
2017-Nov-13 21:59N 39°15' W 076°34'0 0.0
2017-Nov-13 02:00N 39°15' W 076°34'0 0.0
2017-Nov-13 01:28N 39°15' W 076°34'0 0.0
2017-Nov-13 00:58N 39°15' W 076°34'0 0.0
2017-Nov-13 00:28N 39°15' W 076°34'0 0.0
2017-Nov-12 23:59N 39°15' W 076°34'0 0.0
2017-Nov-12 23:29N 39°15' W 076°34'0 0.0
2017-Nov-12 22:59N 39°15' W 076°34'0 0.0
2017-Nov-12 22:30N 39°15' W 076°34'0 0.0
2017-Nov-12 22:00N 39°15' W 076°34'0 0.0
2017-Nov-12 21:30N 39°15' W 076°34'0 0.0
2017-Nov-12 20:58N 39°15' W 076°34'0 0.1
2017-Nov-12 20:28N 39°15' W 076°34'1 1.4
2017-Nov-12 20:00N 39°15' W 076°33'1 1.9
2017-Nov-12 19:28N 39°14' W 076°33'0 0.0
2017-Nov-12 18:58N 39°14' W 076°33'0 0.1
2017-Nov-12 18:29N 39°14' W 076°33'1 3.2
2017-Nov-12 18:01N 39°15' W 076°34'2 3.0
2017-Nov-12 17:30N 39°14' W 076°33'0 0.0
2017-Nov-12 17:00N 39°14' W 076°33'0 0.1
2017-Nov-12 16:28N 39°14' W 076°33'0 0.0
2017-Nov-12 15:58N 39°14' W 076°33'0 0.1
2017-Nov-12 15:28N 39°14' W 076°33'0 0.0
2017-Nov-12 14:59N 39°14' W 076°33'0 0.0
2017-Nov-12 14:29N 39°14' W 076°33'0 0.1
2017-Nov-12 13:59N 39°14' W 076°33'0 0.1
2017-Nov-12 13:30N 39°14' W 076°33'0 0.0
2017-Nov-12 13:00N 39°13' W 076°33'0 0.1
2017-Nov-12 12:30N 39°14' W 076°33'0 0.1
2017-Nov-12 11:58N 39°14' W 076°33'0 0.0
2017-Nov-12 11:28N 39°14' W 076°33'0 0.0
2017-Nov-12 10:58N 39°14' W 076°33'0 0.1
2017-Nov-12 10:29N 39°14' W 076°33'0 0.0
2017-Nov-12 09:59N 39°14' W 076°33'0 0.0
2017-Nov-12 09:29N 39°14' W 076°33'0 0.0
2017-Nov-12 09:00N 39°14' W 076°33'0 0.0
2017-Nov-12 08:30N 39°14' W 076°33'0 0.0
2017-Nov-12 08:00N 39°14' W 076°33'0 0.0
2017-Nov-12 07:28N 39°14' W 076°33'0 0.1
2017-Nov-12 06:58N 39°14' W 076°33'0 0.0
2017-Nov-12 06:28N 39°14' W 076°33'0 0.0
2017-Nov-12 05:59N 39°14' W 076°33'0 0.0
2017-Nov-12 05:29N 39°14' W 076°33'0 0.0
2017-Nov-12 04:59N 39°14' W 076°33'0 0.0
2017-Nov-12 04:30N 39°14' W 076°33'0 0.1
2017-Nov-12 04:00N 39°14' W 076°33'0 0.0
2017-Nov-12 03:30N 39°14' W 076°33'0 0.0
2017-Nov-12 02:58N 39°14' W 076°33'0 0.0
2017-Nov-12 02:28N 39°14' W 076°33'0 0.0
2017-Nov-12 01:58N 39°14' W 076°33'0 0.0
2017-Nov-12 01:29N 39°14' W 076°33'0 0.1
2017-Nov-12 00:59N 39°14' W 076°33'0 0.1
2017-Nov-12 00:29N 39°14' W 076°33'0 0.0
2017-Nov-12 00:00N 39°14' W 076°33'0 0.0
2017-Nov-11 23:30N 39°14' W 076°33'0 0.0
2017-Nov-11 22:57N 39°14' W 076°33'0 0.1
2017-Nov-11 22:28N 39°14' W 076°33'0 0.0
2017-Nov-11 21:58N 39°14' W 076°33'0 0.1
2017-Nov-11 21:28N 39°14' W 076°33'0 0.1
2017-Nov-11 20:59N 39°14' W 076°33'0 0.2
2017-Nov-11 20:29N 39°14' W 076°33'0 0.1
2017-Nov-11 19:59N 39°14' W 076°33'0 0.1
2017-Nov-11 19:30N 39°14' W 076°33'0 0.1
2017-Nov-11 19:00N 39°14' W 076°33'0 0.0
2017-Nov-11 18:30N 39°14' W 076°33'0 0.1
2017-Nov-11 17:58N 39°14' W 076°33'0 0.1
2017-Nov-11 17:28N 39°13' W 076°33'0 0.0
2017-Nov-11 16:59N 39°14' W 076°33'0 0.0
2017-Nov-11 16:29N 39°13' W 076°33'0 0.1
2017-Nov-11 15:59N 39°13' W 076°33'0 0.1
2017-Nov-11 15:30N 39°14' W 076°33'2 3.1
2017-Nov-11 15:00N 39°15' W 076°34'0 0.0
2017-Nov-11 14:30N 39°15' W 076°34'0 0.0
2017-Nov-11 13:58N 39°15' W 076°34'0 0.0
2017-Nov-11 13:28N 39°15' W 076°34'0 0.0
2017-Nov-11 12:55N 39°15' W 076°34'0 0.0
2017-Nov-11 12:30N 39°15' W 076°34'2 2.7
2017-Nov-11 11:56N 39°14' W 076°33'0 0.0
2017-Nov-11 11:26N 39°14' W 076°33'0 0.0
2017-Nov-11 11:00N 39°14' W 076°33'0 0.0
2017-Nov-11 10:30N 39°14' W 076°33'0 0.0
2017-Nov-11 10:00N 39°14' W 076°33'0 0.0
2017-Nov-11 09:28N 39°14' W 076°33'0 0.0
2017-Nov-11 08:55N 39°14' W 076°33'0 0.0
2017-Nov-11 08:28N 39°14' W 076°33'0 0.0
2017-Nov-11 07:59N 39°14' W 076°33'0 0.0
2017-Nov-11 07:29N 39°14' W 076°33'0 0.0
2017-Nov-11 06:59N 39°14' W 076°33'0 0.0
2017-Nov-11 06:30N 39°14' W 076°33'0 0.0
2017-Nov-11 06:00N 39°14' W 076°33'0 0.0
2017-Nov-11 05:30N 39°14' W 076°33'0 0.0
2017-Nov-11 05:00N 39°14' W 076°33'0 0.0
2017-Nov-11 04:28N 39°14' W 076°33'0 0.0
2017-Nov-11 03:58N 39°14' W 076°33'0 0.0
2017-Nov-11 03:29N 39°14' W 076°33'0 0.0
2017-Nov-11 02:59N 39°14' W 076°33'0 0.0
2017-Nov-11 02:29N 39°14' W 076°33'0 0.0
2017-Nov-11 02:00N 39°14' W 076°33'0 0.0
2017-Nov-11 01:30N 39°14' W 076°33'0 0.0
2017-Nov-11 01:00N 39°14' W 076°33'0 0.0
2017-Nov-11 00:31N 39°14' W 076°33'0 0.0
2017-Nov-10 23:58N 39°14' W 076°33'0 0.0
2017-Nov-10 23:28N 39°14' W 076°33'0 0.0
2017-Nov-10 22:59N 39°14' W 076°33'0 0.0
2017-Nov-10 22:29N 39°14' W 076°33'0 0.0
2017-Nov-10 21:59N 39°14' W 076°33'0 0.0
2017-Nov-10 21:27N 39°14' W 076°33'0 0.0
2017-Nov-10 21:00N 39°14' W 076°33'0 0.0
2017-Nov-10 20:30N 39°14' W 076°33'0 0.0
2017-Nov-10 20:00N 39°14' W 076°33'0 0.0
2017-Nov-10 19:28N 39°14' W 076°33'0 0.0
2017-Nov-10 18:58N 39°14' W 076°33'0 0.0
2017-Nov-10 18:29N 39°14' W 076°33'0 0.0
2017-Nov-10 17:59N 39°14' W 076°33'0 0.0
2017-Nov-10 17:29N 39°14' W 076°33'0 0.0
2017-Nov-10 17:00N 39°14' W 076°33'0 0.0
2017-Nov-10 16:30N 39°14' W 076°33'0 0.0
2017-Nov-10 16:00N 39°14' W 076°33'0 0.0
2017-Nov-10 15:30N 39°14' W 076°33'0 0.0
2017-Nov-10 14:58N 39°14' W 076°33'0 0.0
2017-Nov-10 14:28N 39°14' W 076°33'0 0.0
2017-Nov-10 13:58N 39°14' W 076°33'0 0.0
2017-Nov-10 13:29N 39°14' W 076°33'0 0.0
2017-Nov-10 12:59N 39°14' W 076°33'0 0.1
2017-Nov-10 12:27N 39°14' W 076°33'0 0.0
2017-Nov-10 12:00N 39°14' W 076°33'0 0.0
2017-Nov-10 11:31N 39°14' W 076°33'0 0.0
2017-Nov-10 11:00N 39°14' W 076°33'0 0.1
2017-Nov-10 10:30N 39°14' W 076°33'0 0.0
2017-Nov-10 10:00N 39°14' W 076°33'0 0.1
2017-Nov-10 09:31N 39°14' W 076°33'3 5.6
2017-Nov-10 09:00N 39°12' W 076°30'9 8.2
2017-Nov-10 07:51N 39°10' W 076°18'3 9.9
2017-Nov-10 07:30N 39°13' W 076°15'5 9.5
2017-Nov-10 07:01N 39°17' W 076°14'4 9.0
2017-Nov-10 06:31N 39°21' W 076°10'4 8.7
2017-Nov-10 06:00N 39°23' W 076°05'4 8.3
2017-Nov-10 05:31N 39°26' W 076°01'4 7.9
2017-Nov-10 05:01N 39°28' W 075°58'4 7.1
2017-Nov-10 04:31N 39°31' W 075°54'3 5.6
2017-Nov-10 04:01N 39°32' W 075°51'3 5.4
2017-Nov-10 03:31N 39°32' W 075°47'3 6.9
2017-Nov-10 03:01N 39°33' W 075°43'4 7.2
2017-Nov-10 02:31N 39°33' W 075°38'4 8.0
2017-Nov-10 02:00N 39°34' W 075°33'3 6.3
2017-Nov-10 01:30N 39°30' W 075°33'3 6.7
2017-Nov-10 01:01N 39°27' W 075°33'3 7.0
2017-Nov-10 00:31N 39°24' W 075°30'3 7.0
2017-Nov-10 00:01N 39°22' W 075°27'4 7.1
2017-Nov-09 23:31N 39°19' W 075°24'4 7.2
2017-Nov-09 23:01N 39°17' W 075°21'4 7.7
2017-Nov-09 22:31N 39°14' W 075°18'4 7.8
2017-Nov-09 22:00N 39°10' W 075°16'4 8.1
2017-Nov-09 21:30N 39°07' W 075°12'4 8.2
2017-Nov-09 21:01N 39°03' W 075°10'4 8.2
2017-Nov-09 20:30N 38°59' W 075°08'62 7.1
2017-Nov-09 11:45N 39°37' W 074°04'2 9.3
2017-Nov-09 11:30N 39°39' W 074°03'5 9.3
2017-Nov-09 11:00N 39°43' W 073°60'5 9.1
2017-Nov-09 10:30N 39°47' W 073°57'42 9.3
2017-Nov-09 05:56N 40°30' W 073°56'4 9.2
2017-Nov-09 05:30N 40°32' W 074°01'  

Dump ship's entire track history